PWSweather.com
Personal Weather Stations
Station Observations
PALMY
Palmerston NorthNZ 4410

Palmerston NorthNZ 4410

Lat: -40.349104, Lon: 175.615094

Elevation: 75.4

Station Type: WeatherDuino Pro2

http://palmyweather.co.nz

Latest ConditionsUpdated 4:35:00 PM GMT+12:12 Saturday, Aug 18, 2018
Currently Today's Max Today's Min Today's Average
Temperature 51.4°F10.8°C 55.0°F12.8°C 44.2°F6.8°C 48.5°F9.2°C
Dew Point 40.1°F4.5°C 42.0°F5.6°C -1.8°F-18.8°C 21.6°F-5.8°C
Winds 0.4 mph SW0.6 kmh SW 6.3 mph -10.1 kmh - - 1.2 mph 1.9 kmh
Wind Gusts 2.7 mph4.3 kmh 17.9 mph28.8 kmh - -
Humidity 65% 65% 13% 38%
Pressure 29.82 in1009.8 mb 29.82 in1009.8 mb 29.59 in1002.0 mb -
Precipitation - 0.08 in2.0 mm - -
Hour Temp Dew Point Humidity Winds Wind Gusts Pressure Precip Precip Rate Daily Precip Total
04:35 PM 51.4°F10.8°C 40.1°F4.5°C 65% 0.4 mph SW0.6 kmh SW 2.7 mph4.3 kmh 29.82 in1009.8 mb 0.00 in0.0 mm 0.00 in0.0 mm 0.08 in2.0 mm
04:30 PM 51.2°F10.7°C 39.9°F4.4°C 65% 1.3 mph WSW2.1 kmh WSW 5.4 mph8.7 kmh 29.82 in1009.8 mb 0.00 in0.0 mm 0.00 in0.0 mm 0.08 in2.0 mm
04:25 PM 50.9°F10.5°C 39.6°F4.2°C 65% 1.8 mph SW2.9 kmh SW 5.4 mph8.7 kmh 29.82 in1009.8 mb 0.00 in0.0 mm 0.00 in0.0 mm 0.08 in2.0 mm
04:20 PM 51.2°F10.7°C 39.9°F4.4°C 65% 1.3 mph SW2.1 kmh SW 4.0 mph6.4 kmh 29.82 in1009.8 mb 0.00 in0.0 mm 0.00 in0.0 mm 0.08 in2.0 mm
04:15 PM 52.3°F11.3°C 40.9°F4.9°C 65% 1.3 mph WSW2.1 kmh WSW 5.4 mph8.7 kmh 29.81 in1009.5 mb 0.00 in0.0 mm 0.00 in0.0 mm 0.08 in2.0 mm
04:10 PM 52.1°F11.2°C 40.7°F4.8°C 65% 1.3 mph WSW2.1 kmh WSW 5.4 mph8.7 kmh 29.81 in1009.5 mb 0.00 in0.0 mm 0.00 in0.0 mm 0.08 in2.0 mm
04:05 PM 52.3°F11.3°C 40.9°F4.9°C 65% 1.8 mph WSW2.9 kmh WSW 6.3 mph10.1 kmh 29.81 in1009.5 mb 0.00 in0.0 mm 0.00 in0.0 mm 0.08 in2.0 mm
04:00 PM 51.8°F11.0°C 40.4°F4.7°C 65% 2.7 mph W4.3 kmh W 6.7 mph10.8 kmh 29.81 in1009.5 mb 0.00 in0.0 mm 0.00 in0.0 mm 0.08 in2.0 mm
03:55 PM 51.2°F10.7°C 39.5°F4.2°C 64% 3.1 mph W5.0 kmh W 6.7 mph10.8 kmh 29.81 in1009.5 mb 0.00 in0.0 mm 0.00 in0.0 mm 0.08 in2.0 mm
03:50 PM 50.9°F10.5°C 39.2°F4.0°C 64% 3.1 mph W5.0 kmh W 6.3 mph10.1 kmh 29.81 in1009.5 mb 0.00 in0.0 mm 0.00 in0.0 mm 0.08 in2.0 mm
03:45 PM 51.9°F11.1°C 39.7°F4.3°C 63% 2.7 mph WSW4.3 kmh WSW 6.7 mph10.8 kmh 29.81 in1009.5 mb 0.00 in0.0 mm 0.00 in0.0 mm 0.08 in2.0 mm
03:40 PM 51.9°F11.1°C 39.7°F4.3°C 63% 0.9 mph WSW1.4 kmh WSW 6.7 mph10.8 kmh 29.81 in1009.5 mb 0.00 in0.0 mm 0.00 in0.0 mm 0.08 in2.0 mm
03:35 PM 51.9°F11.1°C 39.7°F4.3°C 63% Calm Calm 1.3 mph2.1 kmh 29.81 in1009.5 mb 0.00 in0.0 mm 0.00 in0.0 mm 0.08 in2.0 mm
03:30 PM 51.8°F11.0°C 39.2°F4.0°C 62% Calm Calm 3.1 mph5.0 kmh 29.80 in1009.1 mb 0.00 in0.0 mm 0.00 in0.0 mm 0.08 in2.0 mm
03:25 PM 52.1°F11.2°C 39.1°F3.9°C 61% Calm Calm 3.1 mph5.0 kmh 29.80 in1009.1 mb 0.00 in0.0 mm 0.00 in0.0 mm 0.08 in2.0 mm
03:20 PM 52.1°F11.2°C 39.1°F3.9°C 61% 0.9 mph SSE1.4 kmh SSE 4.9 mph7.9 kmh 29.80 in1009.1 mb 0.00 in0.0 mm 0.00 in0.0 mm 0.08 in2.0 mm
03:15 PM 51.9°F11.1°C 38.9°F3.8°C 61% 0.9 mph SSE1.4 kmh SSE 6.3 mph10.1 kmh 29.80 in1009.1 mb 0.00 in0.0 mm 0.00 in0.0 mm 0.08 in2.0 mm
03:10 PM 52.1°F11.2°C 39.1°F3.9°C 61% 0.9 mph S1.4 kmh S 6.3 mph10.1 kmh 29.80 in1009.1 mb 0.00 in0.0 mm 0.00 in0.0 mm 0.08 in2.0 mm
03:05 PM 51.9°F11.1°C 38.9°F3.8°C 61% 0.9 mph S1.4 kmh S 5.8 mph9.3 kmh 29.80 in1009.1 mb 0.00 in0.0 mm 0.00 in0.0 mm 0.08 in2.0 mm
03:00 PM 52.1°F11.2°C 38.7°F3.7°C 60% 0.4 mph SSE0.6 kmh SSE 5.8 mph9.3 kmh 29.80 in1009.1 mb 0.00 in0.0 mm 0.00 in0.0 mm 0.08 in2.0 mm
02:55 PM 52.3°F11.3°C 39.3°F4.1°C 61% 2.2 mph SE3.5 kmh SE 5.8 mph9.3 kmh 29.79 in1008.8 mb 0.00 in0.0 mm 0.00 in0.0 mm 0.08 in2.0 mm
02:50 PM 51.8°F11.0°C 38.4°F3.6°C 60% 2.7 mph SE4.3 kmh SE 5.8 mph9.3 kmh 29.80 in1009.1 mb 0.00 in0.0 mm 0.00 in0.0 mm 0.08 in2.0 mm
02:45 PM 51.0°F10.6°C 37.2°F2.9°C 59% 3.1 mph SE5.0 kmh SE 7.2 mph11.6 kmh 29.79 in1008.8 mb 0.00 in0.0 mm 0.00 in0.0 mm 0.08 in2.0 mm
02:40 PM 50.7°F10.4°C 37.8°F3.2°C 61% 3.6 mph SE5.8 kmh SE 7.6 mph12.2 kmh 29.79 in1008.8 mb 0.00 in0.0 mm 0.00 in0.0 mm 0.08 in2.0 mm
02:35 PM 50.3°F10.2°C 38.2°F3.4°C 63% 2.2 mph ESE3.5 kmh ESE 7.6 mph12.2 kmh 29.80 in1009.1 mb 0.00 in0.0 mm 0.00 in0.0 mm 0.08 in2.0 mm
02:30 PM 51.4°F10.8°C 39.7°F4.3°C 64% 0.9 mph ENE1.4 kmh ENE 6.7 mph10.8 kmh 29.79 in1008.8 mb 0.00 in0.0 mm 0.00 in0.0 mm 0.08 in2.0 mm
02:25 PM 52.1°F11.2°C 38.7°F3.7°C 60% Calm Calm -- 29.79 in1008.8 mb 0.00 in0.0 mm 0.00 in0.0 mm 0.08 in2.0 mm
02:20 PM 51.4°F10.8°C 38.8°F3.8°C 62% 0.4 mph NNW0.6 kmh NNW 3.6 mph5.8 kmh 29.79 in1008.8 mb 0.00 in0.0 mm 0.00 in0.0 mm 0.08 in2.0 mm
02:15 PM 51.9°F11.1°C 36.3°F2.4°C 55% 2.7 mph NW4.3 kmh NW 6.3 mph10.1 kmh 29.79 in1008.8 mb 0.00 in0.0 mm 0.00 in0.0 mm 0.08 in2.0 mm
02:10 PM 51.8°F11.0°C 35.2°F1.8°C 53% 2.7 mph NW4.3 kmh NW 6.3 mph10.1 kmh 29.79 in1008.8 mb 0.00 in0.0 mm 0.00 in0.0 mm 0.08 in2.0 mm
02:05 PM 51.8°F11.0°C 37.1°F2.8°C 57% 1.8 mph WNW2.9 kmh WNW 7.2 mph11.6 kmh 29.79 in1008.8 mb 0.00 in0.0 mm 0.00 in0.0 mm 0.08 in2.0 mm
02:00 PM 51.6°F10.9°C 39.4°F4.1°C 63% 1.3 mph WSW2.1 kmh WSW 7.2 mph11.6 kmh 29.79 in1008.8 mb 0.00 in0.0 mm 0.00 in0.0 mm 0.08 in2.0 mm
01:55 PM 51.6°F10.9°C 40.3°F4.6°C 65% 1.8 mph SW2.9 kmh SW 6.7 mph10.8 kmh 29.79 in1008.8 mb 0.00 in0.0 mm 0.00 in0.0 mm 0.08 in2.0 mm
01:50 PM 51.8°F11.0°C 40.0°F4.4°C 64% 2.7 mph SW4.3 kmh SW 8.1 mph13.0 kmh 29.79 in1008.8 mb 0.00 in0.0 mm 0.00 in0.0 mm 0.08 in2.0 mm
01:45 PM 51.4°F10.8°C 39.3°F4.1°C 63% 2.2 mph WSW3.5 kmh WSW 8.1 mph13.0 kmh 29.79 in1008.8 mb 0.00 in0.0 mm 0.00 in0.0 mm 0.08 in2.0 mm
01:40 PM 52.1°F11.2°C 39.1°F3.9°C 61% 1.8 mph W2.9 kmh W 5.8 mph9.3 kmh 29.79 in1008.8 mb 0.00 in0.0 mm 0.00 in0.0 mm 0.08 in2.0 mm
01:35 PM 52.1°F11.2°C 39.5°F4.2°C 62% 3.1 mph WSW5.0 kmh WSW 8.5 mph13.7 kmh 29.79 in1008.8 mb 0.00 in0.0 mm 0.00 in0.0 mm 0.08 in2.0 mm
01:30 PM 52.1°F11.2°C 38.7°F3.7°C 60% 3.1 mph WSW5.0 kmh WSW 8.5 mph13.7 kmh 29.79 in1008.8 mb 0.00 in0.0 mm 0.00 in0.0 mm 0.08 in2.0 mm
01:25 PM 51.9°F11.1°C 38.9°F3.8°C 61% 2.7 mph WSW4.3 kmh WSW 7.2 mph11.6 kmh 29.79 in1008.8 mb 0.00 in0.0 mm 0.00 in0.0 mm 0.08 in2.0 mm
01:20 PM 51.9°F11.1°C 36.3°F2.4°C 55% 3.6 mph SW5.8 kmh SW 7.2 mph11.6 kmh 29.79 in1008.8 mb 0.00 in0.0 mm 0.00 in0.0 mm 0.08 in2.0 mm
01:15 PM 51.4°F10.8°C 34.9°F1.6°C 53% 4.0 mph WSW6.4 kmh WSW 9.0 mph14.5 kmh 29.79 in1008.8 mb 0.00 in0.0 mm 0.00 in0.0 mm 0.08 in2.0 mm
01:10 PM 50.7°F10.4°C 32.8°F0.4°C 50% 4.9 mph WSW7.9 kmh WSW 12.1 mph19.5 kmh 29.79 in1008.8 mb 0.00 in0.0 mm 0.00 in0.0 mm 0.08 in2.0 mm
01:05 PM 50.7°F10.4°C 30.7°F-0.7°C 46% 5.4 mph WSW8.7 kmh WSW 12.1 mph19.5 kmh 29.79 in1008.8 mb 0.00 in0.0 mm 0.00 in0.0 mm 0.08 in2.0 mm
01:00 PM 50.5°F10.3°C 28.8°F-1.8°C 43% 4.9 mph WSW7.9 kmh WSW 9.4 mph15.1 kmh 29.79 in1008.8 mb 0.00 in0.0 mm 0.00 in0.0 mm 0.08 in2.0 mm
12:55 PM 50.9°F10.5°C 29.8°F-1.2°C 44% 5.8 mph WSW9.3 kmh WSW 17.9 mph28.8 kmh 29.79 in1008.8 mb 0.00 in0.0 mm 0.00 in0.0 mm 0.08 in2.0 mm
12:50 PM 50.7°F10.4°C 31.7°F-0.2°C 48% 6.3 mph SW10.1 kmh SW 17.9 mph28.8 kmh 29.79 in1008.8 mb 0.00 in0.0 mm 0.00 in0.0 mm 0.08 in2.0 mm
12:45 PM 51.4°F10.8°C 38.8°F3.8°C 62% 4.0 mph S6.4 kmh S 12.5 mph20.1 kmh 29.79 in1008.8 mb 0.00 in0.0 mm 0.00 in0.0 mm 0.08 in2.0 mm
12:40 PM 51.8°F11.0°C 40.0°F4.4°C 64% 3.6 mph SE5.8 kmh SE 9.0 mph14.5 kmh 29.78 in1008.5 mb 0.00 in0.0 mm 0.00 in0.0 mm 0.08 in2.0 mm
12:35 PM 52.1°F11.2°C 40.7°F4.8°C 65% 2.2 mph ESE3.5 kmh ESE 9.0 mph14.5 kmh 29.78 in1008.5 mb 0.00 in0.0 mm 0.00 in0.0 mm 0.08 in2.0 mm
12:30 PM 53.9°F12.2°C 42.0°F5.6°C 64% 0.9 mph SSW1.4 kmh SSW 4.5 mph7.2 kmh 29.78 in1008.5 mb 0.00 in0.0 mm 0.00 in0.0 mm 0.08 in2.0 mm
12:25 PM 52.8°F11.6°C 41.0°F5.0°C 64% 2.7 mph SSW4.3 kmh SSW 7.6 mph12.2 kmh 29.79 in1008.8 mb 0.00 in0.0 mm 0.00 in0.0 mm 0.08 in2.0 mm
12:20 PM 52.5°F11.4°C 40.3°F4.6°C 63% 2.2 mph S3.5 kmh S 7.6 mph12.2 kmh 29.79 in1008.8 mb 0.00 in0.0 mm 0.00 in0.0 mm 0.08 in2.0 mm
12:15 PM 53.0°F11.7°C 40.8°F4.9°C 63% 0.9 mph SE1.4 kmh SE 5.8 mph9.3 kmh 29.79 in1008.8 mb 0.00 in0.0 mm 0.00 in0.0 mm 0.08 in2.0 mm
12:10 PM 52.7°F11.5°C 40.9°F4.9°C 64% 0.9 mph SSE1.4 kmh SSE 5.8 mph9.3 kmh 29.79 in1008.8 mb 0.00 in0.0 mm 0.00 in0.0 mm 0.08 in2.0 mm
12:05 PM 52.8°F11.6°C 40.6°F4.8°C 63% 0.9 mph SSE1.4 kmh SSE 4.9 mph7.9 kmh 29.79 in1008.8 mb 0.00 in0.0 mm 0.00 in0.0 mm 0.08 in2.0 mm
12:00 PM 54.3°F12.4°C 41.6°F5.3°C 62% 0.4 mph NNE0.6 kmh NNE 3.1 mph5.0 kmh 29.79 in1008.8 mb 0.00 in0.0 mm 0.00 in0.0 mm 0.08 in2.0 mm
11:55 AM 53.9°F12.2°C 40.8°F4.9°C 61% 0.4 mph N0.6 kmh N 4.0 mph6.4 kmh 29.79 in1008.8 mb 0.00 in0.0 mm 0.00 in0.0 mm 0.08 in2.0 mm
11:50 AM 53.9°F12.2°C 41.6°F5.3°C 63% 1.8 mph N2.9 kmh N 4.5 mph7.2 kmh 29.79 in1008.8 mb 0.00 in0.0 mm 0.00 in0.0 mm 0.08 in2.0 mm
11:45 AM 55.0°F12.8°C 40.5°F4.7°C 58% 1.8 mph NNE2.9 kmh NNE 4.5 mph7.2 kmh 29.79 in1008.8 mb 0.00 in0.0 mm 0.00 in0.0 mm 0.08 in2.0 mm
11:40 AM 53.2°F11.8°C 38.4°F3.6°C 57% 1.3 mph NE2.1 kmh NE 4.0 mph6.4 kmh 29.79 in1008.8 mb 0.00 in0.0 mm 0.00 in0.0 mm 0.08 in2.0 mm
11:35 AM 52.3°F11.3°C 38.0°F3.3°C 58% 1.3 mph NE2.1 kmh NE 4.9 mph7.9 kmh 29.79 in1008.8 mb 0.00 in0.0 mm 0.00 in0.0 mm 0.08 in2.0 mm
11:30 AM 52.8°F11.6°C 36.2°F2.3°C 53% 1.3 mph N2.1 kmh N 4.9 mph7.9 kmh 29.79 in1008.8 mb 0.00 in0.0 mm 0.00 in0.0 mm 0.08 in2.0 mm
11:25 AM 51.9°F11.1°C 35.3°F1.8°C 53% 0.4 mph NW0.6 kmh NW 3.6 mph5.8 kmh 29.79 in1008.8 mb 0.00 in0.0 mm 0.00 in0.0 mm 0.08 in2.0 mm
11:20 AM 52.1°F11.2°C 34.0°F1.1°C 50% Calm Calm 0.9 mph1.4 kmh 29.79 in1008.8 mb 0.00 in0.0 mm 0.00 in0.0 mm 0.08 in2.0 mm
11:15 AM 51.4°F10.8°C 33.4°F0.8°C 50% 0.9 mph NW1.4 kmh NW 2.2 mph3.5 kmh 29.79 in1008.8 mb 0.00 in0.0 mm 0.00 in0.0 mm 0.08 in2.0 mm
11:10 AM 51.0°F10.6°C 33.5°F0.8°C 51% 1.8 mph NNW2.9 kmh NNW 2.7 mph4.3 kmh 29.79 in1008.8 mb 0.00 in0.0 mm 0.00 in0.0 mm 0.08 in2.0 mm
11:05 AM 51.8°F11.0°C 31.7°F-0.2°C 46% 1.3 mph N2.1 kmh N 2.7 mph4.3 kmh 29.79 in1008.8 mb 0.00 in0.0 mm 0.00 in0.0 mm 0.08 in2.0 mm
11:00 AM 51.8°F11.0°C 30.6°F-0.8°C 44% 0.9 mph N1.4 kmh N 2.7 mph4.3 kmh 29.79 in1008.8 mb 0.00 in0.0 mm 0.00 in0.0 mm 0.08 in2.0 mm
10:55 AM 51.4°F10.8°C 29.1°F-1.6°C 42% 0.9 mph NW1.4 kmh NW 2.7 mph4.3 kmh 29.79 in1008.8 mb 0.00 in0.0 mm 0.00 in0.0 mm 0.08 in2.0 mm
10:50 AM 50.9°F10.5°C 31.9°F-0.1°C 48% 0.4 mph NW0.6 kmh NW 2.2 mph3.5 kmh 29.79 in1008.8 mb 0.00 in0.0 mm 0.00 in0.0 mm 0.08 in2.0 mm
10:45 AM 51.0°F10.6°C 33.0°F0.6°C 50% 0.9 mph N1.4 kmh N 3.1 mph5.0 kmh 29.78 in1008.5 mb 0.00 in0.0 mm 0.00 in0.0 mm 0.08 in2.0 mm
10:40 AM 51.8°F11.0°C 32.8°F0.4°C 48% 0.9 mph N1.4 kmh N 3.1 mph5.0 kmh 29.78 in1008.5 mb 0.00 in0.0 mm 0.00 in0.0 mm 0.08 in2.0 mm
10:35 AM 51.6°F10.9°C 33.6°F0.9°C 50% 1.3 mph N2.1 kmh N 3.1 mph5.0 kmh 29.78 in1008.5 mb 0.00 in0.0 mm 0.00 in0.0 mm 0.08 in2.0 mm
10:30 AM 51.8°F11.0°C 33.3°F0.7°C 49% 1.8 mph N2.9 kmh N 4.0 mph6.4 kmh 29.78 in1008.5 mb 0.00 in0.0 mm 0.00 in0.0 mm 0.08 in2.0 mm
10:25 AM 52.5°F11.4°C 33.4°F0.8°C 48% 1.8 mph NNE2.9 kmh NNE 4.0 mph6.4 kmh 29.77 in1008.1 mb 0.00 in0.0 mm 0.00 in0.0 mm 0.08 in2.0 mm
10:20 AM 52.7°F11.5°C 33.6°F0.9°C 48% 1.8 mph N2.9 kmh N 3.6 mph5.8 kmh 29.77 in1008.1 mb 0.00 in0.0 mm 0.00 in0.0 mm 0.08 in2.0 mm
10:15 AM 52.5°F11.4°C 32.3°F0.2°C 46% 2.2 mph NNE3.5 kmh NNE 4.5 mph7.2 kmh 29.77 in1008.1 mb 0.00 in0.0 mm 0.00 in0.0 mm 0.08 in2.0 mm
10:10 AM 49.2°F9.6°C 25.3°F-3.7°C 39% 1.8 mph NNE2.9 kmh NNE 4.5 mph7.2 kmh 29.77 in1008.1 mb 0.00 in0.0 mm 0.00 in0.0 mm 0.08 in2.0 mm
10:05 AM 49.2°F9.6°C 25.3°F-3.7°C 39% 0.4 mph NNE0.6 kmh NNE 4.5 mph7.2 kmh 29.77 in1008.1 mb 0.00 in0.0 mm 0.00 in0.0 mm 0.08 in2.0 mm
10:00 AM 49.2°F9.6°C 25.3°F-3.7°C 39% Calm Calm 0.4 mph0.6 kmh 29.77 in1008.1 mb 0.00 in0.0 mm 0.00 in0.0 mm 0.08 in2.0 mm
09:55 AM 49.2°F9.6°C 25.3°F-3.7°C 39% Calm Calm 1.3 mph2.1 kmh 29.77 in1008.1 mb 0.00 in0.0 mm 0.00 in0.0 mm 0.08 in2.0 mm
09:50 AM 49.2°F9.6°C 22.0°F-5.6°C 34% 0.4 mph SE0.6 kmh SE 2.7 mph4.3 kmh 29.77 in1008.1 mb 0.00 in0.0 mm 0.00 in0.0 mm 0.08 in2.0 mm
09:45 AM 48.7°F9.3°C 18.6°F-7.4°C 30% 0.9 mph SE1.4 kmh SE 3.6 mph5.8 kmh 29.78 in1008.5 mb 0.00 in0.0 mm 0.00 in0.0 mm 0.08 in2.0 mm
09:40 AM 48.5°F9.2°C 16.0°F-8.9°C 27% 0.9 mph SE1.4 kmh SE 3.6 mph5.8 kmh 29.77 in1008.1 mb 0.00 in0.0 mm 0.00 in0.0 mm 0.08 in2.0 mm
09:35 AM 49.1°F9.5°C 16.5°F-8.6°C 27% 0.9 mph SE1.4 kmh SE 4.0 mph6.4 kmh 29.77 in1008.1 mb 0.00 in0.0 mm 0.00 in0.0 mm 0.08 in2.0 mm
09:30 AM 48.7°F9.3°C 17.0°F-8.3°C 28% 0.4 mph SSE0.6 kmh SSE 4.0 mph6.4 kmh 29.77 in1008.1 mb 0.00 in0.0 mm 0.00 in0.0 mm 0.08 in2.0 mm
09:25 AM 48.5°F9.2°C 21.4°F-5.9°C 34% Calm Calm 1.8 mph2.9 kmh 29.77 in1008.1 mb 0.00 in0.0 mm 0.00 in0.0 mm 0.08 in2.0 mm
09:20 AM 48.2°F9.0°C 21.1°F-6.1°C 34% Calm Calm -- 29.77 in1008.1 mb 0.00 in0.0 mm 0.00 in0.0 mm 0.08 in2.0 mm
09:15 AM 47.8°F8.8°C 19.4°F-7.0°C 32% Calm Calm -- 29.77 in1008.1 mb 0.00 in0.0 mm 0.00 in0.0 mm 0.08 in2.0 mm
09:10 AM 48.7°F9.3°C 13.5°F-10.3°C 24% Calm Calm -- 29.76 in1007.8 mb 0.00 in0.0 mm 0.00 in0.0 mm 0.08 in2.0 mm
09:05 AM 48.2°F9.0°C 10.1°F-12.2°C 21% Calm Calm -- 29.77 in1008.1 mb 0.00 in0.0 mm 0.00 in0.0 mm 0.08 in2.0 mm
09:00 AM 48.0°F8.9°C 6.5°F-14.2°C 18% Calm Calm -- 29.76 in1007.8 mb 0.00 in0.0 mm 0.00 in0.0 mm 0.08 in2.0 mm
08:55 AM 47.4°F8.6°C 4.7°F-15.2°C 17% Calm Calm 1.8 mph2.9 kmh 29.76 in1007.8 mb 0.00 in0.0 mm 0.00 in0.0 mm 0.08 in2.0 mm
08:50 AM 47.3°F8.5°C 3.3°F-15.9°C 16% Calm Calm 1.8 mph2.9 kmh 29.76 in1007.8 mb 0.00 in0.0 mm 0.00 in0.0 mm 0.08 in2.0 mm
08:45 AM 47.3°F8.5°C 1.9°F-16.7°C 15% Calm Calm -- 29.75 in1007.5 mb 0.00 in0.0 mm 0.00 in0.0 mm 0.08 in2.0 mm
08:40 AM 47.4°F8.6°C -1.1°F-18.4°C 13% Calm Calm -- 29.75 in1007.5 mb 0.00 in0.0 mm 0.00 in0.0 mm 0.08 in2.0 mm
08:35 AM 47.4°F8.6°C -1.1°F-18.4°C 13% Calm Calm -- 29.75 in1007.5 mb 0.00 in0.0 mm 0.00 in0.0 mm 0.08 in2.0 mm
08:30 AM 46.9°F8.3°C -1.5°F-18.6°C 13% Calm Calm -- 29.75 in1007.5 mb 0.00 in0.0 mm 0.00 in0.0 mm 0.08 in2.0 mm
08:25 AM 46.7°F8.2°C -1.6°F-18.7°C 13% Calm Calm -- 29.75 in1007.5 mb 0.00 in0.0 mm 0.00 in0.0 mm 0.08 in2.0 mm
08:20 AM 46.5°F8.1°C -1.8°F-18.8°C 13% Calm Calm -- 29.75 in1007.5 mb 0.00 in0.0 mm 0.00 in0.0 mm 0.08 in2.0 mm
08:15 AM 46.0°F7.8°C -0.6°F-18.1°C 14% Calm Calm -- 29.75 in1007.5 mb 0.00 in0.0 mm 0.00 in0.0 mm 0.08 in2.0 mm
08:10 AM 46.0°F7.8°C -0.6°F-18.1°C 14% Calm Calm -- 29.74 in1007.1 mb 0.00 in0.0 mm 0.00 in0.0 mm 0.08 in2.0 mm
08:05 AM 45.8°F7.7°C -0.8°F-18.2°C 14% Calm Calm -- 29.74 in1007.1 mb 0.00 in0.0 mm 0.00 in0.0 mm 0.08 in2.0 mm
08:00 AM 45.6°F7.6°C -0.9°F-18.3°C 14% Calm Calm -- 29.74 in1007.1 mb 0.00 in0.0 mm 0.00 in0.0 mm 0.08 in2.0 mm
07:55 AM 45.5°F7.5°C -1.0°F-18.3°C 14% Calm Calm -- 29.74 in1007.1 mb 0.00 in0.0 mm 0.00 in0.0 mm 0.08 in2.0 mm
07:50 AM 45.3°F7.4°C -1.2°F-18.4°C 14% Calm Calm -- 29.73 in1006.8 mb 0.00 in0.0 mm 0.00 in0.0 mm 0.08 in2.0 mm
07:45 AM 45.1°F7.3°C 0.1°F-17.7°C 15% Calm Calm -- 29.73 in1006.8 mb 0.00 in0.0 mm 0.00 in0.0 mm 0.08 in2.0 mm
07:40 AM 44.9°F7.2°C 0.0°F-17.8°C 15% Calm Calm -- 29.73 in1006.8 mb 0.00 in0.0 mm 0.00 in0.0 mm 0.08 in2.0 mm
07:35 AM 44.7°F7.1°C -0.2°F-17.9°C 15% Calm Calm -- 29.73 in1006.8 mb 0.00 in0.0 mm 0.00 in0.0 mm 0.08 in2.0 mm
07:30 AM 44.6°F7.0°C -0.3°F-17.9°C 15% Calm Calm -- 29.72 in1006.4 mb 0.00 in0.0 mm 0.00 in0.0 mm 0.08 in2.0 mm
07:25 AM 44.2°F6.8°C 0.8°F-17.3°C 16% Calm Calm -- 29.72 in1006.4 mb 0.00 in0.0 mm 0.00 in0.0 mm 0.08 in2.0 mm
07:20 AM 44.4°F6.9°C 1.0°F-17.2°C 16% Calm Calm -- 29.71 in1006.1 mb 0.00 in0.0 mm 0.00 in0.0 mm 0.08 in2.0 mm
07:15 AM 44.4°F6.9°C 1.0°F-17.2°C 16% Calm Calm -- 29.71 in1006.1 mb 0.00 in0.0 mm 0.00 in0.0 mm 0.08 in2.0 mm
07:10 AM 44.4°F6.9°C 1.0°F-17.2°C 16% Calm Calm -- 29.71 in1006.1 mb 0.00 in0.0 mm 0.00 in0.0 mm 0.08 in2.0 mm
07:05 AM 44.4°F6.9°C 1.0°F-17.2°C 16% Calm Calm -- 29.71 in1006.1 mb 0.00 in0.0 mm 0.00 in0.0 mm 0.08 in2.0 mm
07:00 AM 44.4°F6.9°C 1.0°F-17.2°C 16% Calm Calm -- 29.71 in1006.1 mb 0.00 in0.0 mm 0.00 in0.0 mm 0.08 in2.0 mm
06:55 AM 44.6°F7.0°C 1.1°F-17.2°C 16% Calm Calm -- 29.71 in1006.1 mb 0.00 in0.0 mm 0.00 in0.0 mm 0.08 in2.0 mm
06:50 AM 44.6°F7.0°C 2.4°F-16.4°C 17% Calm Calm -- 29.70 in1005.8 mb 0.00 in0.0 mm 0.00 in0.0 mm 0.08 in2.0 mm
06:45 AM 44.7°F7.1°C 1.2°F-17.1°C 16% Calm Calm -- 29.70 in1005.8 mb 0.00 in0.0 mm 0.00 in0.0 mm 0.08 in2.0 mm
06:40 AM 44.9°F7.2°C 2.7°F-16.3°C 17% Calm Calm -- 29.70 in1005.8 mb 0.00 in0.0 mm 0.00 in0.0 mm 0.08 in2.0 mm
06:35 AM 45.1°F7.3°C 2.8°F-16.2°C 17% Calm Calm -- 29.70 in1005.8 mb 0.00 in0.0 mm 0.00 in0.0 mm 0.08 in2.0 mm
06:30 AM 44.7°F7.1°C 2.5°F-16.4°C 17% Calm Calm -- 29.69 in1005.4 mb 0.00 in0.0 mm 0.00 in0.0 mm 0.08 in2.0 mm
06:25 AM 44.9°F7.2°C 2.7°F-16.3°C 17% Calm Calm -- 29.69 in1005.4 mb 0.01 in0.3 mm 0.00 in0.0 mm 0.08 in2.0 mm
06:20 AM 45.3°F7.4°C 3.0°F-16.1°C 17% Calm Calm -- 29.69 in1005.4 mb 0.01 in0.3 mm 0.00 in0.0 mm 0.08 in2.0 mm
06:15 AM 45.3°F7.4°C 3.0°F-16.1°C 17% Calm Calm -- 29.68 in1005.1 mb 0.01 in0.3 mm 0.00 in0.0 mm 0.08 in2.0 mm
06:10 AM 45.1°F7.3°C 4.1°F-15.5°C 18% Calm Calm -- 29.68 in1005.1 mb 0.01 in0.3 mm 0.00 in0.0 mm 0.08 in2.0 mm
06:05 AM 44.9°F7.2°C 3.9°F-15.6°C 18% Calm Calm -- 29.68 in1005.1 mb 0.01 in0.3 mm 0.00 in0.0 mm 0.08 in2.0 mm
06:00 AM 45.1°F7.3°C 4.1°F-15.5°C 18% Calm Calm -- 29.68 in1005.1 mb 0.02 in0.5 mm 0.00 in0.0 mm 0.08 in2.0 mm
05:55 AM 45.1°F7.3°C 4.1°F-15.5°C 18% Calm Calm -- 29.68 in1005.1 mb 0.02 in0.5 mm 0.00 in0.0 mm 0.08 in2.0 mm
05:50 AM 45.1°F7.3°C 4.1°F-15.5°C 18% Calm Calm -- 29.68 in1005.1 mb 0.02 in0.5 mm 0.00 in0.0 mm 0.08 in2.0 mm
05:45 AM 45.1°F7.3°C 5.3°F-14.8°C 19% Calm Calm -- 29.67 in1004.7 mb 0.03 in0.8 mm 0.00 in0.0 mm 0.08 in2.0 mm
05:40 AM 45.3°F7.4°C 5.4°F-14.8°C 19% Calm Calm -- 29.67 in1004.7 mb 0.03 in0.8 mm 0.00 in0.0 mm 0.08 in2.0 mm
05:35 AM 45.5°F7.5°C 5.6°F-14.7°C 19% Calm Calm -- 29.66 in1004.4 mb 0.04 in1.0 mm 0.00 in0.0 mm 0.08 in2.0 mm
05:30 AM 45.5°F7.5°C 5.6°F-14.7°C 19% Calm Calm -- 29.66 in1004.4 mb 0.05 in1.3 mm 0.12 in3.0 mm 0.08 in2.0 mm
05:25 AM 45.6°F7.6°C 5.7°F-14.6°C 19% Calm Calm -- 29.66 in1004.4 mb 0.04 in1.0 mm 0.00 in0.0 mm 0.07 in1.8 mm
05:20 AM 45.6°F7.6°C 6.8°F-14.0°C 20% Calm Calm -- 29.66 in1004.4 mb 0.05 in1.3 mm 0.00 in0.0 mm 0.07 in1.8 mm
05:15 AM 45.6°F7.6°C 6.8°F-14.0°C 20% Calm Calm -- 29.66 in1004.4 mb 0.06 in1.5 mm 0.00 in0.0 mm 0.07 in1.8 mm
05:10 AM 45.8°F7.7°C 8.0°F-13.3°C 21% Calm Calm -- 29.66 in1004.4 mb 0.06 in1.5 mm 0.00 in0.0 mm 0.07 in1.8 mm
05:05 AM 45.8°F7.7°C 9.1°F-12.7°C 22% Calm Calm -- 29.65 in1004.1 mb 0.06 in1.5 mm 0.00 in0.0 mm 0.07 in1.8 mm
05:00 AM 45.5°F7.5°C 10.8°F-11.8°C 24% Calm Calm -- 29.66 in1004.4 mb 0.06 in1.5 mm 0.00 in0.0 mm 0.06 in1.5 mm
04:55 AM 45.6°F7.6°C 11.8°F-11.2°C 25% Calm Calm -- 29.66 in1004.4 mb 0.06 in1.5 mm 0.00 in0.0 mm 0.06 in1.5 mm
04:50 AM 45.8°F7.7°C 12.8°F-10.7°C 26% Calm Calm -- 29.65 in1004.1 mb 0.06 in1.5 mm 0.12 in3.0 mm 0.06 in1.5 mm
04:45 AM 45.8°F7.7°C 16.1°F-8.8°C 30% Calm Calm -- 29.65 in1004.1 mb 0.05 in1.3 mm 0.00 in0.0 mm 0.05 in1.3 mm
04:40 AM 45.8°F7.7°C 16.1°F-8.8°C 30% Calm Calm -- 29.65 in1004.1 mb 0.05 in1.3 mm 0.12 in3.0 mm 0.05 in1.3 mm
04:35 AM 45.8°F7.7°C 16.1°F-8.8°C 30% Calm Calm -- 29.65 in1004.1 mb 0.04 in1.0 mm 0.12 in3.0 mm 0.04 in1.0 mm
04:30 AM 46.0°F7.8°C 17.8°F-7.9°C 32% Calm Calm -- 29.65 in1004.1 mb 0.03 in0.8 mm 0.00 in0.0 mm 0.03 in0.8 mm
04:25 AM 46.0°F7.8°C 19.2°F-7.1°C 34% Calm Calm -- 29.65 in1004.1 mb 0.03 in0.8 mm 0.12 in3.0 mm 0.03 in0.8 mm
04:20 AM 46.0°F7.8°C 19.9°F-6.7°C 35% Calm Calm -- 29.65 in1004.1 mb 0.02 in0.5 mm 0.00 in0.0 mm 0.02 in0.5 mm
04:15 AM 46.0°F7.8°C 20.5°F-6.4°C 36% Calm Calm -- 29.64 in1003.7 mb 0.02 in0.5 mm 0.00 in0.0 mm 0.02 in0.5 mm
04:10 AM 46.2°F7.9°C 21.4°F-5.9°C 37% Calm Calm -- 29.64 in1003.7 mb 0.02 in0.5 mm 0.12 in3.0 mm 0.02 in0.5 mm
04:05 AM 46.4°F8.0°C 21.5°F-5.8°C 37% Calm Calm -- 29.64 in1003.7 mb 0.01 in0.3 mm 0.12 in3.0 mm 0.01 in0.3 mm
04:00 AM 46.5°F8.1°C 21.6°F-5.8°C 37% Calm Calm -- 29.64 in1003.7 mb 0.00 in0.0 mm 0.00 in0.0 mm 0.00 in0.0 mm
03:55 AM 46.9°F8.3°C 20.0°F-6.7°C 34% Calm Calm 2.2 mph3.5 kmh 29.64 in1003.7 mb 0.00 in0.0 mm 0.00 in0.0 mm 0.00 in0.0 mm
03:50 AM 46.9°F8.3°C 20.0°F-6.7°C 34% 0.9 mph SSE1.4 kmh SSE 2.7 mph4.3 kmh 29.64 in1003.7 mb 0.00 in0.0 mm 0.00 in0.0 mm 0.00 in0.0 mm
03:45 AM 46.9°F8.3°C 19.3°F-7.1°C 33% 1.8 mph SSE2.9 kmh SSE 5.4 mph8.7 kmh 29.64 in1003.7 mb 0.00 in0.0 mm 0.00 in0.0 mm 0.00 in0.0 mm
03:40 AM 46.9°F8.3°C 18.6°F-7.4°C 32% 2.2 mph S3.5 kmh S 5.4 mph8.7 kmh 29.63 in1003.4 mb 0.00 in0.0 mm 0.00 in0.0 mm 0.00 in0.0 mm
03:35 AM 46.9°F8.3°C 17.8°F-7.9°C 31% 2.7 mph S4.3 kmh S 5.4 mph8.7 kmh 29.63 in1003.4 mb 0.00 in0.0 mm 0.00 in0.0 mm 0.00 in0.0 mm
03:30 AM 46.9°F8.3°C 17.1°F-8.3°C 30% 2.7 mph S4.3 kmh S 5.4 mph8.7 kmh 29.63 in1003.4 mb 0.00 in0.0 mm 0.00 in0.0 mm 0.00 in0.0 mm
03:25 AM 46.5°F8.1°C 15.1°F-9.4°C 28% 3.1 mph S5.0 kmh S 5.8 mph9.3 kmh 29.63 in1003.4 mb 0.00 in0.0 mm 0.00 in0.0 mm 0.00 in0.0 mm
03:20 AM 46.5°F8.1°C 15.1°F-9.4°C 28% 3.1 mph S5.0 kmh S 5.8 mph9.3 kmh 29.63 in1003.4 mb 0.00 in0.0 mm 0.00 in0.0 mm 0.00 in0.0 mm
03:15 AM 46.5°F8.1°C 15.9°F-8.9°C 29% 1.3 mph SSE2.1 kmh SSE 5.8 mph9.3 kmh 29.63 in1003.4 mb 0.00 in0.0 mm 0.00 in0.0 mm 0.00 in0.0 mm
03:10 AM 46.5°F8.1°C 15.1°F-9.4°C 28% Calm Calm 2.7 mph4.3 kmh 29.63 in1003.4 mb 0.00 in0.0 mm 0.00 in0.0 mm 0.00 in0.0 mm
03:05 AM 46.4°F8.0°C 15.0°F-9.4°C 28% 0.9 mph NE1.4 kmh NE 3.6 mph5.8 kmh 29.63 in1003.4 mb 0.00 in0.0 mm 0.00 in0.0 mm 0.00 in0.0 mm
03:00 AM 46.5°F8.1°C 15.1°F-9.4°C 28% 0.9 mph NE1.4 kmh NE 3.6 mph5.8 kmh 29.62 in1003.0 mb 0.00 in0.0 mm 0.00 in0.0 mm 0.00 in0.0 mm
02:55 AM 46.4°F8.0°C 15.0°F-9.4°C 28% 0.4 mph NNE0.6 kmh NNE 2.7 mph4.3 kmh 29.62 in1003.0 mb 0.00 in0.0 mm 0.00 in0.0 mm 0.00 in0.0 mm
02:50 AM 46.4°F8.0°C 15.0°F-9.4°C 28% 0.4 mph SE0.6 kmh SE 3.1 mph5.0 kmh 29.62 in1003.0 mb 0.00 in0.0 mm 0.00 in0.0 mm 0.00 in0.0 mm
02:45 AM 46.2°F7.9°C 14.0°F-10.0°C 27% 0.9 mph SE1.4 kmh SE 3.1 mph5.0 kmh 29.62 in1003.0 mb 0.00 in0.0 mm 0.00 in0.0 mm 0.00 in0.0 mm
02:40 AM 46.2°F7.9°C 14.0°F-10.0°C 27% 0.4 mph SE0.6 kmh SE 3.1 mph5.0 kmh 29.63 in1003.4 mb 0.00 in0.0 mm 0.00 in0.0 mm 0.00 in0.0 mm
02:35 AM 46.0°F7.8°C 13.0°F-10.6°C 26% 0.4 mph SSE0.6 kmh SSE 3.1 mph5.0 kmh 29.63 in1003.4 mb 0.00 in0.0 mm 0.00 in0.0 mm 0.00 in0.0 mm
02:30 AM 46.0°F7.8°C 13.0°F-10.6°C 26% 1.3 mph SE2.1 kmh SE 3.1 mph5.0 kmh 29.63 in1003.4 mb 0.00 in0.0 mm 0.00 in0.0 mm 0.00 in0.0 mm
02:25 AM 45.8°F7.7°C 11.9°F-11.2°C 25% 0.4 mph SE0.6 kmh SE 3.1 mph5.0 kmh 29.63 in1003.4 mb 0.00 in0.0 mm 0.00 in0.0 mm 0.00 in0.0 mm
02:20 AM 45.6°F7.6°C 12.7°F-10.7°C 26% Calm Calm 2.7 mph4.3 kmh 29.62 in1003.0 mb 0.00 in0.0 mm 0.00 in0.0 mm 0.00 in0.0 mm
02:15 AM 45.6°F7.6°C 12.7°F-10.7°C 26% Calm Calm -- 29.62 in1003.0 mb 0.00 in0.0 mm 0.00 in0.0 mm 0.00 in0.0 mm
02:10 AM 45.8°F7.7°C 13.7°F-10.2°C 27% Calm Calm -- 29.62 in1003.0 mb 0.00 in0.0 mm 0.00 in0.0 mm 0.00 in0.0 mm
02:05 AM 45.8°F7.7°C 13.7°F-10.2°C 27% Calm Calm -- 29.62 in1003.0 mb 0.00 in0.0 mm 0.00 in0.0 mm 0.00 in0.0 mm
02:00 AM 46.2°F7.9°C 14.0°F-10.0°C 27% Calm Calm -- 29.62 in1003.0 mb 0.00 in0.0 mm 0.00 in0.0 mm 0.00 in0.0 mm
01:55 AM 46.4°F8.0°C 15.0°F-9.4°C 28% Calm Calm -- 29.62 in1003.0 mb 0.00 in0.0 mm 0.00 in0.0 mm 0.00 in0.0 mm
01:50 AM 46.4°F8.0°C 15.0°F-9.4°C 28% Calm Calm -- 29.62 in1003.0 mb 0.00 in0.0 mm 0.00 in0.0 mm 0.00 in0.0 mm
01:45 AM 46.4°F8.0°C 15.9°F-8.9°C 29% Calm Calm -- 29.62 in1003.0 mb 0.00 in0.0 mm 0.00 in0.0 mm 0.00 in0.0 mm
01:40 AM 46.4°F8.0°C 16.6°F-8.6°C 30% Calm Calm -- 29.62 in1003.0 mb 0.00 in0.0 mm 0.00 in0.0 mm 0.00 in0.0 mm
01:35 AM 46.4°F8.0°C 17.4°F-8.1°C 31% Calm Calm -- 29.62 in1003.0 mb 0.00 in0.0 mm 0.00 in0.0 mm 0.00 in0.0 mm
01:30 AM 46.5°F8.1°C 17.5°F-8.1°C 31% 0.4 mph ENE0.6 kmh ENE 3.1 mph5.0 kmh 29.62 in1003.0 mb 0.00 in0.0 mm 0.00 in0.0 mm 0.00 in0.0 mm
01:25 AM 46.4°F8.0°C 18.1°F-7.7°C 32% 1.3 mph E2.1 kmh E 3.6 mph5.8 kmh 29.62 in1003.0 mb 0.00 in0.0 mm 0.00 in0.0 mm 0.00 in0.0 mm
01:20 AM 46.4°F8.0°C 18.1°F-7.7°C 32% 1.8 mph SE2.9 kmh SE 3.6 mph5.8 kmh 29.61 in1002.7 mb 0.00 in0.0 mm 0.00 in0.0 mm 0.00 in0.0 mm
01:15 AM 46.4°F8.0°C 18.9°F-7.3°C 33% 1.8 mph S2.9 kmh S 3.1 mph5.0 kmh 29.61 in1002.7 mb 0.00 in0.0 mm 0.00 in0.0 mm 0.00 in0.0 mm
01:10 AM 46.2°F7.9°C 18.7°F-7.4°C 33% 1.8 mph SW2.9 kmh SW 3.1 mph5.0 kmh 29.61 in1002.7 mb 0.00 in0.0 mm 0.00 in0.0 mm 0.00 in0.0 mm
01:05 AM 46.2°F7.9°C 19.4°F-7.0°C 34% 2.2 mph WSW3.5 kmh WSW 5.8 mph9.3 kmh 29.61 in1002.7 mb 0.00 in0.0 mm 0.00 in0.0 mm 0.00 in0.0 mm
01:00 AM 46.2°F7.9°C 20.1°F-6.6°C 35% 2.7 mph NW4.3 kmh NW 5.8 mph9.3 kmh 29.61 in1002.7 mb 0.00 in0.0 mm 0.00 in0.0 mm 0.00 in0.0 mm
12:55 AM 46.0°F7.8°C 21.2°F-6.0°C 37% 3.6 mph N5.8 kmh N 7.6 mph12.2 kmh 29.60 in1002.4 mb 0.00 in0.0 mm 0.00 in0.0 mm 0.00 in0.0 mm
12:50 AM 46.0°F7.8°C 22.4°F-5.3°C 39% 4.5 mph N7.2 kmh N 9.0 mph14.5 kmh 29.60 in1002.4 mb 0.00 in0.0 mm 0.00 in0.0 mm 0.00 in0.0 mm
12:45 AM 46.4°F8.0°C 23.4°F-4.8°C 40% 4.5 mph N7.2 kmh N 9.0 mph14.5 kmh 29.59 in1002.0 mb 0.00 in0.0 mm 0.00 in0.0 mm 0.00 in0.0 mm
12:40 AM 46.4°F8.0°C 24.0°F-4.4°C 41% 4.5 mph N7.2 kmh N 8.5 mph13.7 kmh 29.59 in1002.0 mb 0.00 in0.0 mm 0.00 in0.0 mm 0.00 in0.0 mm
12:35 AM 46.5°F8.1°C 23.5°F-4.7°C 40% 3.6 mph NNW5.8 kmh NNW 8.1 mph13.0 kmh 29.59 in1002.0 mb 0.00 in0.0 mm 0.00 in0.0 mm 0.00 in0.0 mm
12:30 AM 46.9°F8.3°C 22.6°F-5.2°C 38% 3.6 mph NNW5.8 kmh NNW 7.2 mph11.6 kmh 29.59 in1002.0 mb 0.00 in0.0 mm 0.00 in0.0 mm 0.00 in0.0 mm
12:25 AM 47.3°F8.5°C 21.7°F-5.7°C 36% 4.5 mph N7.2 kmh N 9.4 mph15.1 kmh 29.59 in1002.0 mb 0.00 in0.0 mm 0.00 in0.0 mm 0.00 in0.0 mm
12:20 AM 47.4°F8.6°C 20.4°F-6.4°C 34% 4.9 mph N7.9 kmh N 9.4 mph15.1 kmh 29.59 in1002.0 mb 0.00 in0.0 mm 0.00 in0.0 mm 0.00 in0.0 mm
12:15 AM 47.6°F8.7°C 19.2°F-7.1°C 32% 5.4 mph N8.7 kmh N 12.1 mph19.5 kmh 29.59 in1002.0 mb 0.00 in0.0 mm 0.00 in0.0 mm 0.00 in0.0 mm
12:10 AM 47.8°F8.8°C 18.6°F-7.4°C 31% 5.8 mph N9.3 kmh N 12.1 mph19.5 kmh 29.59 in1002.0 mb 0.00 in0.0 mm 0.00 in0.0 mm 0.00 in0.0 mm
12:00 AM 48.3°F9.1°C 17.5°F-8.1°C 29% 5.4 mph NNW8.7 kmh NNW 12.5 mph20.1 kmh 29.60 in1002.4 mb 0.00 in0.0 mm 0.00 in0.0 mm 0.00 in0.0 mm